Fillmore, Canada
Current Conditions -  °F | °C
As of 10:00 PM on Saturday 25 Oct 2014 (Local Time) from CYEN Reporting Station
Few Clouds Few Clouds  
Wind Chill: 34°   Ceiling: Unl
Heat Index: 41°   Visibility: 15mi
Dew Point: 30°   Wind: 12mph
Humidity: 65%   Direction: 110°ESE
Pressure: 29.84"   Gusts: NA
Location:  49.88°N, 103.43°W
Report Text: CYEN 260400Z 11010KT 15SM FEW160 05/M01 A2984 RMK AC2 SLP127
Loading
Personal Weather Stations






























Interactive Weather Map
Tropical Storm Tracking
New forecast layout! Learn more

10-Day Weather Forecast

Advertisements
Track Severe Weather on mobile